sensor_id;sensor_type;location;lat;lon;timestamp;P1;durP1;ratioP1;P2;durP2;ratioP2
4762;SDS011;2395;50.738;7.122;2022-08-02T00:01:53;6.40;;;4.50;;
4762;SDS011;2395;50.738;7.122;2022-08-02T00:04:20;5.60;;;4.27;;
4762;SDS011;2395;50.738;7.122;2022-08-02T00:06:49;6.00;;;4.50;;
4762;SDS011;2395;50.738;7.122;2022-08-02T00:09:16;5.53;;;4.07;;
4762;SDS011;2395;50.738;7.122;2022-08-02T00:11:43;6.00;;;4.20;;
4762;SDS011;2395;50.738;7.122;2022-08-02T00:14:10;7.03;;;4.00;;
4762;SDS011;2395;50.738;7.122;2022-08-02T00:16:37;4.87;;;4.00;;
4762;SDS011;2395;50.738;7.122;2022-08-02T00:19:04;9.30;;;3.97;;
4762;SDS011;2395;50.738;7.122;2022-08-02T00:21:31;4.73;;;3.93;;
4762;SDS011;2395;50.738;7.122;2022-08-02T00:23:59;4.67;;;3.90;;
4762;SDS011;2395;50.738;7.122;2022-08-02T00:26:26;4.77;;;3.80;;
4762;SDS011;2395;50.738;7.122;2022-08-02T00:28:53;5.50;;;4.40;;
4762;SDS011;2395;50.738;7.122;2022-08-02T00:31:20;6.20;;;4.43;;
4762;SDS011;2395;50.738;7.122;2022-08-02T00:33:48;5.87;;;3.70;;
4762;SDS011;2395;50.738;7.122;2022-08-02T00:36:15;7.60;;;4.27;;
4762;SDS011;2395;50.738;7.122;2022-08-02T00:38:42;4.60;;;4.10;;
4762;SDS011;2395;50.738;7.122;2022-08-02T00:41:12;5.40;;;3.90;;
4762;SDS011;2395;50.738;7.122;2022-08-02T00:43:41;5.17;;;3.80;;
4762;SDS011;2395;50.738;7.122;2022-08-02T00:46:08;6.20;;;4.70;;
4762;SDS011;2395;50.738;7.122;2022-08-02T00:48:35;6.50;;;4.00;;
4762;SDS011;2395;50.738;7.122;2022-08-02T00:51:03;6.30;;;4.10;;
4762;SDS011;2395;50.738;7.122;2022-08-02T00:53:30;5.97;;;4.30;;
4762;SDS011;2395;50.738;7.122;2022-08-02T00:55:58;5.10;;;4.57;;
4762;SDS011;2395;50.738;7.122;2022-08-02T00:58:27;4.87;;;3.90;;
4762;SDS011;2395;50.738;7.122;2022-08-02T01:00:54;7.00;;;4.20;;
4762;SDS011;2395;50.738;7.122;2022-08-02T01:03:22;4.23;;;3.83;;
4762;SDS011;2395;50.738;7.122;2022-08-02T01:05:49;7.90;;;4.10;;
4762;SDS011;2395;50.738;7.122;2022-08-02T01:08:16;4.73;;;3.80;;
4762;SDS011;2395;50.738;7.122;2022-08-02T01:10:43;7.50;;;4.80;;
4762;SDS011;2395;50.738;7.122;2022-08-02T01:13:10;5.47;;;3.90;;
4762;SDS011;2395;50.738;7.122;2022-08-02T01:15:40;6.47;;;4.03;;
4762;SDS011;2395;50.738;7.122;2022-08-02T01:18:17;5.57;;;4.20;;
4762;SDS011;2395;50.738;7.122;2022-08-02T01:20:58;6.53;;;3.60;;
4762;SDS011;2395;50.738;7.122;2022-08-02T01:23:50;5.40;;;4.33;;
4762;SDS011;2395;50.738;7.122;2022-08-02T01:26:32;6.60;;;4.30;;
4762;SDS011;2395;50.738;7.122;2022-08-02T01:29:10;5.30;;;4.37;;
4762;SDS011;2395;50.738;7.122;2022-08-02T01:31:46;4.73;;;4.13;;
4762;SDS011;2395;50.738;7.122;2022-08-02T01:34:21;5.23;;;4.43;;
4762;SDS011;2395;50.738;7.122;2022-08-02T01:36:57;5.50;;;4.50;;
4762;SDS011;2395;50.738;7.122;2022-08-02T01:39:33;7.13;;;4.23;;
4762;SDS011;2395;50.738;7.122;2022-08-02T01:42:04;5.13;;;4.30;;
4762;SDS011;2395;50.738;7.122;2022-08-02T01:44:35;6.30;;;4.30;;
4762;SDS011;2395;50.738;7.122;2022-08-02T01:47:06;5.40;;;4.53;;
4762;SDS011;2395;50.738;7.122;2022-08-02T01:49:47;4.97;;;4.30;;
4762;SDS011;2395;50.738;7.122;2022-08-02T01:52:22;7.00;;;4.80;;
4762;SDS011;2395;50.738;7.122;2022-08-02T01:54:55;5.17;;;4.67;;
4762;SDS011;2395;50.738;7.122;2022-08-02T01:57:29;8.20;;;4.13;;
4762;SDS011;2395;50.738;7.122;2022-08-02T02:00:03;5.80;;;4.70;;
4762;SDS011;2395;50.738;7.122;2022-08-02T02:02:33;5.03;;;4.50;;
4762;SDS011;2395;50.738;7.122;2022-08-02T02:05:05;6.53;;;5.17;;
4762;SDS011;2395;50.738;7.122;2022-08-02T02:07:37;6.07;;;5.47;;
4762;SDS011;2395;50.738;7.122;2022-08-02T02:10:06;5.93;;;4.33;;
4762;SDS011;2395;50.738;7.122;2022-08-02T02:12:37;6.97;;;5.63;;
4762;SDS011;2395;50.738;7.122;2022-08-02T02:15:08;5.13;;;4.63;;
4762;SDS011;2395;50.738;7.122;2022-08-02T02:17:38;4.90;;;4.40;;
4762;SDS011;2395;50.738;7.122;2022-08-02T02:20:10;4.97;;;4.43;;
4762;SDS011;2395;50.738;7.122;2022-08-02T02:22:41;8.10;;;4.83;;
4762;SDS011;2395;50.738;7.122;2022-08-02T02:25:08;7.63;;;4.40;;
4762;SDS011;2395;50.738;7.122;2022-08-02T02:27:42;6.00;;;4.37;;
4762;SDS011;2395;50.738;7.122;2022-08-02T02:30:16;7.70;;;5.23;;
4762;SDS011;2395;50.738;7.122;2022-08-02T02:32:44;6.50;;;4.90;;
4762;SDS011;2395;50.738;7.122;2022-08-02T02:35:16;6.90;;;4.93;;
4762;SDS011;2395;50.738;7.122;2022-08-02T02:37:46;6.57;;;4.30;;
4762;SDS011;2395;50.738;7.122;2022-08-02T02:40:16;5.33;;;4.57;;
4762;SDS011;2395;50.738;7.122;2022-08-02T02:42:45;9.60;;;5.07;;
4762;SDS011;2395;50.738;7.122;2022-08-02T02:45:16;6.10;;;4.90;;
4762;SDS011;2395;50.738;7.122;2022-08-02T02:47:46;6.40;;;5.37;;
4762;SDS011;2395;50.738;7.122;2022-08-02T02:50:15;5.27;;;4.77;;
4762;SDS011;2395;50.738;7.122;2022-08-02T02:52:43;6.40;;;5.20;;
4762;SDS011;2395;50.738;7.122;2022-08-02T02:55:12;9.33;;;5.07;;
4762;SDS011;2395;50.738;7.122;2022-08-02T02:57:41;6.20;;;4.97;;
4762;SDS011;2395;50.738;7.122;2022-08-02T03:00:10;5.03;;;4.53;;
4762;SDS011;2395;50.738;7.122;2022-08-02T03:02:41;8.10;;;5.67;;
4762;SDS011;2395;50.738;7.122;2022-08-02T03:05:10;7.73;;;5.70;;
4762;SDS011;2395;50.738;7.122;2022-08-02T03:07:38;5.83;;;4.97;;
4762;SDS011;2395;50.738;7.122;2022-08-02T03:10:07;6.20;;;5.10;;
4762;SDS011;2395;50.738;7.122;2022-08-02T03:12:35;9.83;;;6.23;;
4762;SDS011;2395;50.738;7.122;2022-08-02T03:15:04;5.70;;;5.10;;
4762;SDS011;2395;50.738;7.122;2022-08-02T03:17:41;5.70;;;5.20;;
4762;SDS011;2395;50.738;7.122;2022-08-02T03:20:11;8.53;;;5.30;;
4762;SDS011;2395;50.738;7.122;2022-08-02T03:22:41;9.03;;;5.73;;
4762;SDS011;2395;50.738;7.122;2022-08-02T03:25:09;5.47;;;4.97;;
4762;SDS011;2395;50.738;7.122;2022-08-02T03:27:39;6.37;;;5.17;;
4762;SDS011;2395;50.738;7.122;2022-08-02T03:30:07;6.23;;;5.23;;
4762;SDS011;2395;50.738;7.122;2022-08-02T03:32:37;8.93;;;5.13;;
4762;SDS011;2395;50.738;7.122;2022-08-02T03:35:09;7.87;;;5.70;;
4762;SDS011;2395;50.738;7.122;2022-08-02T03:37:43;6.60;;;5.30;;
4762;SDS011;2395;50.738;7.122;2022-08-02T03:40:12;6.00;;;5.40;;
4762;SDS011;2395;50.738;7.122;2022-08-02T03:42:39;6.53;;;5.67;;
4762;SDS011;2395;50.738;7.122;2022-08-02T03:45:08;7.87;;;6.03;;
4762;SDS011;2395;50.738;7.122;2022-08-02T03:47:37;6.87;;;5.20;;
4762;SDS011;2395;50.738;7.122;2022-08-02T03:50:09;5.60;;;5.10;;
4762;SDS011;2395;50.738;7.122;2022-08-02T03:52:38;6.63;;;5.33;;
4762;SDS011;2395;50.738;7.122;2022-08-02T03:55:09;5.93;;;5.33;;
4762;SDS011;2395;50.738;7.122;2022-08-02T03:57:38;6.40;;;5.80;;
4762;SDS011;2395;50.738;7.122;2022-08-02T04:00:07;9.20;;;5.87;;
4762;SDS011;2395;50.738;7.122;2022-08-02T04:02:37;7.13;;;5.50;;
4762;SDS011;2395;50.738;7.122;2022-08-02T04:05:06;8.67;;;5.80;;
4762;SDS011;2395;50.738;7.122;2022-08-02T04:07:34;6.80;;;5.90;;
4762;SDS011;2395;50.738;7.122;2022-08-02T04:10:01;7.00;;;6.30;;
4762;SDS011;2395;50.738;7.122;2022-08-02T04:12:28;6.27;;;5.60;;
4762;SDS011;2395;50.738;7.122;2022-08-02T04:14:55;7.20;;;5.80;;
4762;SDS011;2395;50.738;7.122;2022-08-02T04:17:23;7.00;;;6.00;;
4762;SDS011;2395;50.738;7.122;2022-08-02T04:19:57;6.37;;;5.60;;
4762;SDS011;2395;50.738;7.122;2022-08-02T04:22:33;7.20;;;5.30;;
4762;SDS011;2395;50.738;7.122;2022-08-02T04:25:05;7.40;;;5.77;;
4762;SDS011;2395;50.738;7.122;2022-08-02T04:27:36;6.50;;;5.43;;
4762;SDS011;2395;50.738;7.122;2022-08-02T04:30:06;5.87;;;5.30;;
4762;SDS011;2395;50.738;7.122;2022-08-02T04:32:35;7.30;;;5.57;;
4762;SDS011;2395;50.738;7.122;2022-08-02T04:35:03;7.67;;;5.57;;
4762;SDS011;2395;50.738;7.122;2022-08-02T04:37:33;6.47;;;5.00;;
4762;SDS011;2395;50.738;7.122;2022-08-02T04:40:03;5.60;;;5.10;;
4762;SDS011;2395;50.738;7.122;2022-08-02T04:42:34;7.20;;;4.83;;
4762;SDS011;2395;50.738;7.122;2022-08-02T04:45:01;6.30;;;5.00;;
4762;SDS011;2395;50.738;7.122;2022-08-02T04:47:29;6.67;;;4.77;;
4762;SDS011;2395;50.738;7.122;2022-08-02T04:49:58;15.70;;;7.20;;
4762;SDS011;2395;50.738;7.122;2022-08-02T04:52:25;8.33;;;4.90;;
4762;SDS011;2395;50.738;7.122;2022-08-02T04:54:56;6.47;;;4.37;;
4762;SDS011;2395;50.738;7.122;2022-08-02T04:57:23;4.43;;;3.90;;
4762;SDS011;2395;50.738;7.122;2022-08-02T05:00:08;5.73;;;4.40;;
4762;SDS011;2395;50.738;7.122;2022-08-02T05:02:36;6.87;;;5.10;;
4762;SDS011;2395;50.738;7.122;2022-08-02T05:05:03;6.63;;;4.70;;
4762;SDS011;2395;50.738;7.122;2022-08-02T05:07:31;5.10;;;4.30;;
4762;SDS011;2395;50.738;7.122;2022-08-02T05:10:00;5.87;;;4.80;;
4762;SDS011;2395;50.738;7.122;2022-08-02T05:12:27;6.80;;;4.90;;
4762;SDS011;2395;50.738;7.122;2022-08-02T05:14:54;6.37;;;5.13;;
4762;SDS011;2395;50.738;7.122;2022-08-02T05:17:21;8.47;;;6.17;;
4762;SDS011;2395;50.738;7.122;2022-08-02T05:19:48;7.03;;;5.50;;
4762;SDS011;2395;50.738;7.122;2022-08-02T05:22:15;5.30;;;4.73;;
4762;SDS011;2395;50.738;7.122;2022-08-02T05:24:42;8.07;;;6.13;;
4762;SDS011;2395;50.738;7.122;2022-08-02T05:27:10;6.40;;;5.57;;
4762;SDS011;2395;50.738;7.122;2022-08-02T05:29:38;9.17;;;6.20;;
4762;SDS011;2395;50.738;7.122;2022-08-02T05:32:05;7.40;;;5.60;;
4762;SDS011;2395;50.738;7.122;2022-08-02T05:34:32;9.53;;;7.20;;
4762;SDS011;2395;50.738;7.122;2022-08-02T05:36:59;9.67;;;7.97;;
4762;SDS011;2395;50.738;7.122;2022-08-02T05:39:26;12.47;;;8.17;;
4762;SDS011;2395;50.738;7.122;2022-08-02T05:41:53;10.27;;;7.20;;
4762;SDS011;2395;50.738;7.122;2022-08-02T05:44:26;9.00;;;6.73;;
4762;SDS011;2395;50.738;7.122;2022-08-02T05:47:12;8.73;;;6.33;;
4762;SDS011;2395;50.738;7.122;2022-08-02T05:49:39;6.63;;;5.50;;
4762;SDS011;2395;50.738;7.122;2022-08-02T05:52:08;12.00;;;5.17;;
4762;SDS011;2395;50.738;7.122;2022-08-02T05:54:44;7.70;;;4.97;;
4762;SDS011;2395;50.738;7.122;2022-08-02T05:57:23;5.93;;;5.33;;
4762;SDS011;2395;50.738;7.122;2022-08-02T06:00:03;5.80;;;4.67;;
4762;SDS011;2395;50.738;7.122;2022-08-02T06:02:38;9.87;;;5.60;;
4762;SDS011;2395;50.738;7.122;2022-08-02T06:05:52;8.20;;;6.90;;
4762;SDS011;2395;50.738;7.122;2022-08-02T06:08:26;8.77;;;5.80;;
4762;SDS011;2395;50.738;7.122;2022-08-02T06:11:00;7.57;;;5.70;;
4762;SDS011;2395;50.738;7.122;2022-08-02T06:13:30;7.57;;;5.97;;
4762;SDS011;2395;50.738;7.122;2022-08-02T06:15:59;8.87;;;5.37;;
4762;SDS011;2395;50.738;7.122;2022-08-02T06:18:29;6.40;;;5.80;;
4762;SDS011;2395;50.738;7.122;2022-08-02T06:21:00;9.57;;;6.10;;
4762;SDS011;2395;50.738;7.122;2022-08-02T06:23:29;12.10;;;5.30;;
4762;SDS011;2395;50.738;7.122;2022-08-02T06:25:58;7.50;;;5.80;;
4762;SDS011;2395;50.738;7.122;2022-08-02T06:28:26;8.90;;;5.00;;
4762;SDS011;2395;50.738;7.122;2022-08-02T06:30:55;6.80;;;4.77;;
4762;SDS011;2395;50.738;7.122;2022-08-02T06:33:24;5.97;;;5.37;;
4762;SDS011;2395;50.738;7.122;2022-08-02T06:35:53;10.80;;;7.90;;
4762;SDS011;2395;50.738;7.122;2022-08-02T06:38:31;10.60;;;5.00;;
4762;SDS011;2395;50.738;7.122;2022-08-02T06:41:06;6.10;;;5.00;;
4762;SDS011;2395;50.738;7.122;2022-08-02T06:43:37;8.10;;;5.53;;
4762;SDS011;2395;50.738;7.122;2022-08-02T06:46:14;10.80;;;5.40;;
4762;SDS011;2395;50.738;7.122;2022-08-02T06:48:42;6.37;;;5.23;;
4762;SDS011;2395;50.738;7.122;2022-08-02T06:51:10;7.70;;;5.23;;
4762;SDS011;2395;50.738;7.122;2022-08-02T06:53:38;5.87;;;4.40;;
4762;SDS011;2395;50.738;7.122;2022-08-02T06:56:06;8.63;;;4.90;;
4762;SDS011;2395;50.738;7.122;2022-08-02T06:58:32;8.10;;;5.43;;
4762;SDS011;2395;50.738;7.122;2022-08-02T07:01:00;6.60;;;4.47;;
4762;SDS011;2395;50.738;7.122;2022-08-02T07:03:31;5.67;;;4.20;;
4762;SDS011;2395;50.738;7.122;2022-08-02T07:05:59;6.10;;;4.40;;
4762;SDS011;2395;50.738;7.122;2022-08-02T07:08:27;7.27;;;3.87;;
4762;SDS011;2395;50.738;7.122;2022-08-02T07:10:59;8.30;;;4.20;;
4762;SDS011;2395;50.738;7.122;2022-08-02T07:13:27;13.00;;;4.40;;
4762;SDS011;2395;50.738;7.122;2022-08-02T07:15:55;7.20;;;4.40;;
4762;SDS011;2395;50.738;7.122;2022-08-02T07:18:22;5.53;;;3.43;;
4762;SDS011;2395;50.738;7.122;2022-08-02T07:20:50;6.17;;;4.13;;
4762;SDS011;2395;50.738;7.122;2022-08-02T07:23:18;13.43;;;3.90;;
4762;SDS011;2395;50.738;7.122;2022-08-02T07:25:46;10.30;;;5.07;;
4762;SDS011;2395;50.738;7.122;2022-08-02T07:28:15;4.40;;;3.87;;
4762;SDS011;2395;50.738;7.122;2022-08-02T07:30:42;8.93;;;3.20;;
4762;SDS011;2395;50.738;7.122;2022-08-02T07:33:09;6.00;;;3.73;;
4762;SDS011;2395;50.738;7.122;2022-08-02T07:35:36;9.77;;;4.03;;
4762;SDS011;2395;50.738;7.122;2022-08-02T07:38:03;4.10;;;3.23;;
4762;SDS011;2395;50.738;7.122;2022-08-02T07:40:31;11.70;;;3.17;;
4762;SDS011;2395;50.738;7.122;2022-08-02T07:42:59;7.03;;;3.73;;
4762;SDS011;2395;50.738;7.122;2022-08-02T07:45:26;5.77;;;3.43;;
4762;SDS011;2395;50.738;7.122;2022-08-02T07:47:53;8.70;;;5.30;;
4762;SDS011;2395;50.738;7.122;2022-08-02T07:50:21;7.17;;;3.77;;
4762;SDS011;2395;50.738;7.122;2022-08-02T07:52:48;6.90;;;3.17;;
4762;SDS011;2395;50.738;7.122;2022-08-02T07:55:16;6.40;;;3.60;;
4762;SDS011;2395;50.738;7.122;2022-08-02T07:57:44;4.53;;;3.60;;
4762;SDS011;2395;50.738;7.122;2022-08-02T08:00:12;4.40;;;2.80;;
4762;SDS011;2395;50.738;7.122;2022-08-02T08:02:41;4.30;;;2.77;;
4762;SDS011;2395;50.738;7.122;2022-08-02T08:05:09;4.43;;;3.00;;
4762;SDS011;2395;50.738;7.122;2022-08-02T08:07:36;4.60;;;3.43;;
4762;SDS011;2395;50.738;7.122;2022-08-02T08:10:04;10.73;;;4.17;;
4762;SDS011;2395;50.738;7.122;2022-08-02T08:12:33;4.33;;;2.87;;
4762;SDS011;2395;50.738;7.122;2022-08-02T08:15:01;4.00;;;3.07;;
4762;SDS011;2395;50.738;7.122;2022-08-02T08:17:29;4.20;;;3.00;;
4762;SDS011;2395;50.738;7.122;2022-08-02T08:19:56;5.90;;;3.20;;
4762;SDS011;2395;50.738;7.122;2022-08-02T08:22:23;4.10;;;2.80;;
4762;SDS011;2395;50.738;7.122;2022-08-02T08:24:50;10.83;;;3.37;;
4762;SDS011;2395;50.738;7.122;2022-08-02T08:27:18;6.67;;;3.40;;
4762;SDS011;2395;50.738;7.122;2022-08-02T08:29:46;5.20;;;3.33;;
4762;SDS011;2395;50.738;7.122;2022-08-02T08:32:15;6.53;;;3.00;;
4762;SDS011;2395;50.738;7.122;2022-08-02T08:34:43;4.87;;;2.73;;
4762;SDS011;2395;50.738;7.122;2022-08-02T08:37:10;6.67;;;3.43;;
4762;SDS011;2395;50.738;7.122;2022-08-02T08:39:37;3.47;;;2.50;;
4762;SDS011;2395;50.738;7.122;2022-08-02T08:42:04;5.23;;;3.37;;
4762;SDS011;2395;50.738;7.122;2022-08-02T08:44:32;5.77;;;3.40;;
4762;SDS011;2395;50.738;7.122;2022-08-02T08:47:00;4.63;;;2.60;;
4762;SDS011;2395;50.738;7.122;2022-08-02T08:49:31;3.93;;;2.33;;
4762;SDS011;2395;50.738;7.122;2022-08-02T08:52:05;4.07;;;2.77;;
4762;SDS011;2395;50.738;7.122;2022-08-02T08:54:32;4.70;;;2.97;;
4762;SDS011;2395;50.738;7.122;2022-08-02T08:57:03;5.93;;;2.50;;
4762;SDS011;2395;50.738;7.122;2022-08-02T08:59:31;7.80;;;2.90;;
4762;SDS011;2395;50.738;7.122;2022-08-02T09:01:59;7.30;;;3.20;;
4762;SDS011;2395;50.738;7.122;2022-08-02T09:04:27;8.17;;;3.07;;
4762;SDS011;2395;50.738;7.122;2022-08-02T09:06:56;3.53;;;2.53;;
4762;SDS011;2395;50.738;7.122;2022-08-02T09:09:23;5.57;;;2.57;;
4762;SDS011;2395;50.738;7.122;2022-08-02T09:11:50;5.83;;;2.60;;
4762;SDS011;2395;50.738;7.122;2022-08-02T09:14:27;3.67;;;2.80;;
4762;SDS011;2395;50.738;7.122;2022-08-02T09:17:04;4.37;;;2.80;;
4762;SDS011;2395;50.738;7.122;2022-08-02T09:19:34;8.23;;;2.80;;
4762;SDS011;2395;50.738;7.122;2022-08-02T09:22:03;5.53;;;2.50;;
4762;SDS011;2395;50.738;7.122;2022-08-02T09:24:40;4.07;;;2.70;;
4762;SDS011;2395;50.738;7.122;2022-08-02T09:27:12;3.90;;;2.10;;
4762;SDS011;2395;50.738;7.122;2022-08-02T09:29:44;4.10;;;2.80;;
4762;SDS011;2395;50.738;7.122;2022-08-02T09:32:12;4.93;;;2.27;;
4762;SDS011;2395;50.738;7.122;2022-08-02T09:34:44;4.53;;;2.70;;
4762;SDS011;2395;50.738;7.122;2022-08-02T09:37:21;4.53;;;2.10;;
4762;SDS011;2395;50.738;7.122;2022-08-02T09:39:50;5.90;;;2.40;;
4762;SDS011;2395;50.738;7.122;2022-08-02T09:42:18;8.23;;;6.00;;
4762;SDS011;2395;50.738;7.122;2022-08-02T09:44:52;6.50;;;2.33;;
4762;SDS011;2395;50.738;7.122;2022-08-02T09:47:20;3.90;;;2.50;;
4762;SDS011;2395;50.738;7.122;2022-08-02T09:49:49;2.70;;;2.33;;
4762;SDS011;2395;50.738;7.122;2022-08-02T09:52:22;2.77;;;2.13;;
4762;SDS011;2395;50.738;7.122;2022-08-02T09:54:53;3.10;;;2.33;;
4762;SDS011;2395;50.738;7.122;2022-08-02T09:57:24;2.60;;;2.03;;
4762;SDS011;2395;50.738;7.122;2022-08-02T09:59:53;4.47;;;2.13;;
4762;SDS011;2395;50.738;7.122;2022-08-02T10:02:22;2.40;;;1.90;;
4762;SDS011;2395;50.738;7.122;2022-08-02T10:04:50;3.00;;;2.17;;
4762;SDS011;2395;50.738;7.122;2022-08-02T10:07:17;5.50;;;4.40;;
4762;SDS011;2395;50.738;7.122;2022-08-02T10:09:47;2.47;;;2.27;;
4762;SDS011;2395;50.738;7.122;2022-08-02T10:12:15;1.90;;;1.70;;
4762;SDS011;2395;50.738;7.122;2022-08-02T10:14:44;5.07;;;2.30;;
4762;SDS011;2395;50.738;7.122;2022-08-02T10:17:11;2.13;;;1.90;;
4762;SDS011;2395;50.738;7.122;2022-08-02T10:19:40;2.40;;;1.97;;
4762;SDS011;2395;50.738;7.122;2022-08-02T10:22:08;3.03;;;2.07;;
4762;SDS011;2395;50.738;7.122;2022-08-02T10:24:38;4.10;;;2.43;;
4762;SDS011;2395;50.738;7.122;2022-08-02T10:27:11;4.17;;;2.00;;
4762;SDS011;2395;50.738;7.122;2022-08-02T10:29:43;3.63;;;2.07;;
4762;SDS011;2395;50.738;7.122;2022-08-02T10:32:14;3.67;;;2.40;;
4762;SDS011;2395;50.738;7.122;2022-08-02T10:34:50;9.17;;;2.63;;
4762;SDS011;2395;50.738;7.122;2022-08-02T10:37:22;3.67;;;2.10;;
4762;SDS011;2395;50.738;7.122;2022-08-02T10:39:55;3.90;;;2.27;;
4762;SDS011;2395;50.738;7.122;2022-08-02T10:42:43;4.30;;;1.90;;
4762;SDS011;2395;50.738;7.122;2022-08-02T10:45:14;3.73;;;2.10;;
4762;SDS011;2395;50.738;7.122;2022-08-02T10:47:57;6.50;;;3.40;;
4762;SDS011;2395;50.738;7.122;2022-08-02T10:53:24;2.70;;;1.87;;
4762;SDS011;2395;50.738;7.122;2022-08-02T10:55:53;2.30;;;2.00;;
4762;SDS011;2395;50.738;7.122;2022-08-02T10:58:26;4.50;;;2.50;;
4762;SDS011;2395;50.738;7.122;2022-08-02T11:00:56;4.03;;;1.93;;
4762;SDS011;2395;50.738;7.122;2022-08-02T11:03:37;2.63;;;2.00;;
4762;SDS011;2395;50.738;7.122;2022-08-02T11:06:06;5.60;;;1.57;;
4762;SDS011;2395;50.738;7.122;2022-08-02T11:08:35;3.97;;;1.80;;
4762;SDS011;2395;50.738;7.122;2022-08-02T11:11:14;2.63;;;2.00;;
4762;SDS011;2395;50.738;7.122;2022-08-02T11:14:00;2.07;;;1.87;;
4762;SDS011;2395;50.738;7.122;2022-08-02T11:22:46;4.50;;;1.93;;
4762;SDS011;2395;50.738;7.122;2022-08-02T11:25:30;6.43;;;2.17;;
4762;SDS011;2395;50.738;7.122;2022-08-02T11:27:59;3.60;;;2.20;;
4762;SDS011;2395;50.738;7.122;2022-08-02T11:30:36;2.63;;;1.93;;
4762;SDS011;2395;50.738;7.122;2022-08-02T11:33:04;3.60;;;1.80;;
4762;SDS011;2395;50.738;7.122;2022-08-02T11:35:35;2.90;;;1.70;;
4762;SDS011;2395;50.738;7.122;2022-08-02T11:38:15;4.30;;;1.90;;
4762;SDS011;2395;50.738;7.122;2022-08-02T11:40:45;3.53;;;2.07;;
4762;SDS011;2395;50.738;7.122;2022-08-02T11:43:23;2.47;;;1.80;;
4762;SDS011;2395;50.738;7.122;2022-08-02T11:45:53;2.53;;;1.80;;
4762;SDS011;2395;50.738;7.122;2022-08-02T11:48:31;3.37;;;2.00;;
4762;SDS011;2395;50.738;7.122;2022-08-02T11:51:04;2.90;;;2.03;;
4762;SDS011;2395;50.738;7.122;2022-08-02T11:53:33;3.90;;;2.17;;
4762;SDS011;2395;50.738;7.122;2022-08-02T11:56:08;3.50;;;1.87;;
4762;SDS011;2395;50.738;7.122;2022-08-02T11:58:36;1.90;;;1.50;;
4762;SDS011;2395;50.738;7.122;2022-08-02T12:01:05;2.20;;;1.90;;
4762;SDS011;2395;50.738;7.122;2022-08-02T12:03:33;2.87;;;2.10;;
4762;SDS011;2395;50.738;7.122;2022-08-02T12:06:01;2.03;;;1.83;;
4762;SDS011;2395;50.738;7.122;2022-08-02T12:08:29;5.20;;;1.40;;
4762;SDS011;2395;50.738;7.122;2022-08-02T12:10:57;2.70;;;1.70;;
4762;SDS011;2395;50.738;7.122;2022-08-02T12:13:26;2.67;;;1.80;;
4762;SDS011;2395;50.738;7.122;2022-08-02T12:15:54;2.80;;;1.80;;
4762;SDS011;2395;50.738;7.122;2022-08-02T12:18:48;3.90;;;2.30;;
4762;SDS011;2395;50.738;7.122;2022-08-02T12:21:31;3.07;;;2.20;;
4762;SDS011;2395;50.738;7.122;2022-08-02T12:23:58;1.80;;;1.43;;
4762;SDS011;2395;50.738;7.122;2022-08-02T12:26:25;6.37;;;2.03;;
4762;SDS011;2395;50.738;7.122;2022-08-02T12:28:53;3.33;;;2.20;;
4762;SDS011;2395;50.738;7.122;2022-08-02T12:31:37;4.00;;;1.70;;
4762;SDS011;2395;50.738;7.122;2022-08-02T12:34:11;4.73;;;2.40;;
4762;SDS011;2395;50.738;7.122;2022-08-02T12:36:42;3.27;;;1.63;;
4762;SDS011;2395;50.738;7.122;2022-08-02T12:39:33;1.90;;;1.50;;
4762;SDS011;2395;50.738;7.122;2022-08-02T12:42:06;3.03;;;1.70;;
4762;SDS011;2395;50.738;7.122;2022-08-02T12:44:35;3.20;;;1.73;;
4762;SDS011;2395;50.738;7.122;2022-08-02T12:47:14;3.00;;;2.17;;
4762;SDS011;2395;50.738;7.122;2022-08-02T12:49:43;2.47;;;1.90;;
4762;SDS011;2395;50.738;7.122;2022-08-02T12:52:19;2.07;;;1.87;;
4762;SDS011;2395;50.738;7.122;2022-08-02T12:54:48;4.10;;;2.00;;
4762;SDS011;2395;50.738;7.122;2022-08-02T12:57:16;2.50;;;1.77;;
4762;SDS011;2395;50.738;7.122;2022-08-02T12:59:48;2.77;;;1.70;;
4762;SDS011;2395;50.738;7.122;2022-08-02T13:02:18;5.57;;;1.97;;
4762;SDS011;2395;50.738;7.122;2022-08-02T13:04:46;2.40;;;1.90;;
4762;SDS011;2395;50.738;7.122;2022-08-02T13:07:13;2.70;;;2.13;;
4762;SDS011;2395;50.738;7.122;2022-08-02T13:09:41;2.00;;;1.70;;
4762;SDS011;2395;50.738;7.122;2022-08-02T13:12:10;3.70;;;1.90;;
4762;SDS011;2395;50.738;7.122;2022-08-02T13:14:37;3.27;;;1.87;;
4762;SDS011;2395;50.738;7.122;2022-08-02T13:17:04;3.20;;;2.20;;
4762;SDS011;2395;50.738;7.122;2022-08-02T13:19:31;4.03;;;2.07;;
4762;SDS011;2395;50.738;7.122;2022-08-02T13:21:59;3.00;;;2.10;;
4762;SDS011;2395;50.738;7.122;2022-08-02T13:24:26;3.50;;;2.07;;
4762;SDS011;2395;50.738;7.122;2022-08-02T13:26:53;2.67;;;2.00;;
4762;SDS011;2395;50.738;7.122;2022-08-02T13:29:20;4.80;;;2.93;;
4762;SDS011;2395;50.738;7.122;2022-08-02T13:31:47;3.00;;;2.20;;
4762;SDS011;2395;50.738;7.122;2022-08-02T13:34:14;3.20;;;1.97;;
4762;SDS011;2395;50.738;7.122;2022-08-02T13:36:41;2.33;;;1.90;;
4762;SDS011;2395;50.738;7.122;2022-08-02T13:39:10;4.00;;;1.85;;
4762;SDS011;2395;50.738;7.122;2022-08-02T13:41:37;4.67;;;2.30;;
4762;SDS011;2395;50.738;7.122;2022-08-02T13:44:04;3.13;;;2.00;;
4762;SDS011;2395;50.738;7.122;2022-08-02T13:46:31;3.70;;;1.97;;
4762;SDS011;2395;50.738;7.122;2022-08-02T13:48:59;2.50;;;1.83;;
4762;SDS011;2395;50.738;7.122;2022-08-02T13:51:26;3.40;;;1.70;;
4762;SDS011;2395;50.738;7.122;2022-08-02T13:53:53;5.17;;;2.40;;
4762;SDS011;2395;50.738;7.122;2022-08-02T13:56:22;4.80;;;1.90;;
4762;SDS011;2395;50.738;7.122;2022-08-02T13:58:48;2.93;;;2.10;;
4762;SDS011;2395;50.738;7.122;2022-08-02T14:01:16;5.83;;;2.10;;
4762;SDS011;2395;50.738;7.122;2022-08-02T14:03:42;1.97;;;1.67;;
4762;SDS011;2395;50.738;7.122;2022-08-02T14:06:09;3.40;;;1.50;;
4762;SDS011;2395;50.738;7.122;2022-08-02T14:08:36;2.23;;;1.80;;
4762;SDS011;2395;50.738;7.122;2022-08-02T14:11:03;3.37;;;2.70;;
4762;SDS011;2395;50.738;7.122;2022-08-02T14:13:32;3.30;;;1.97;;
4762;SDS011;2395;50.738;7.122;2022-08-02T14:15:59;2.27;;;1.67;;
4762;SDS011;2395;50.738;7.122;2022-08-02T14:18:26;2.30;;;1.60;;
4762;SDS011;2395;50.738;7.122;2022-08-02T14:20:53;4.33;;;1.73;;
4762;SDS011;2395;50.738;7.122;2022-08-02T14:23:20;4.87;;;1.70;;
4762;SDS011;2395;50.738;7.122;2022-08-02T14:25:47;2.13;;;1.50;;
4762;SDS011;2395;50.738;7.122;2022-08-02T14:28:14;3.17;;;2.07;;
4762;SDS011;2395;50.738;7.122;2022-08-02T14:30:43;2.50;;;1.60;;
4762;SDS011;2395;50.738;7.122;2022-08-02T14:33:10;2.30;;;2.07;;
4762;SDS011;2395;50.738;7.122;2022-08-02T14:35:37;2.83;;;1.80;;
4762;SDS011;2395;50.738;7.122;2022-08-02T14:38:04;4.33;;;1.80;;
4762;SDS011;2395;50.738;7.122;2022-08-02T14:40:31;3.07;;;2.00;;
4762;SDS011;2395;50.738;7.122;2022-08-02T14:42:58;3.20;;;2.40;;
4762;SDS011;2395;50.738;7.122;2022-08-02T14:45:26;4.33;;;1.87;;
4762;SDS011;2395;50.738;7.122;2022-08-02T14:47:57;2.53;;;1.60;;
4762;SDS011;2395;50.738;7.122;2022-08-02T14:50:24;2.73;;;2.17;;
4762;SDS011;2395;50.738;7.122;2022-08-02T14:52:51;3.33;;;1.50;;
4762;SDS011;2395;50.738;7.122;2022-08-02T14:55:18;4.13;;;1.90;;
4762;SDS011;2395;50.738;7.122;2022-08-02T14:57:45;5.17;;;1.87;;
4762;SDS011;2395;50.738;7.122;2022-08-02T15:00:13;2.80;;;1.73;;
4762;SDS011;2395;50.738;7.122;2022-08-02T15:02:42;10.03;;;1.80;;
4762;SDS011;2395;50.738;7.122;2022-08-02T15:05:10;2.13;;;1.57;;
4762;SDS011;2395;50.738;7.122;2022-08-02T15:07:37;3.13;;;1.97;;
4762;SDS011;2395;50.738;7.122;2022-08-02T15:10:04;3.83;;;2.40;;
4762;SDS011;2395;50.738;7.122;2022-08-02T15:12:32;2.70;;;2.00;;
4762;SDS011;2395;50.738;7.122;2022-08-02T15:14:58;3.07;;;1.73;;
4762;SDS011;2395;50.738;7.122;2022-08-02T15:17:25;2.80;;;1.80;;
4762;SDS011;2395;50.738;7.122;2022-08-02T15:19:52;5.73;;;3.07;;
4762;SDS011;2395;50.738;7.122;2022-08-02T15:22:21;5.33;;;2.17;;
4762;SDS011;2395;50.738;7.122;2022-08-02T15:24:48;3.23;;;1.67;;
4762;SDS011;2395;50.738;7.122;2022-08-02T15:27:15;2.93;;;1.73;;
4762;SDS011;2395;50.738;7.122;2022-08-02T15:29:43;3.63;;;1.87;;
4762;SDS011;2395;50.738;7.122;2022-08-02T15:32:11;2.00;;;1.80;;
4762;SDS011;2395;50.738;7.122;2022-08-02T15:34:40;4.90;;;2.23;;
4762;SDS011;2395;50.738;7.122;2022-08-02T15:37:07;2.40;;;1.90;;
4762;SDS011;2395;50.738;7.122;2022-08-02T15:39:36;2.73;;;2.07;;
4762;SDS011;2395;50.738;7.122;2022-08-02T15:42:04;3.33;;;1.93;;